Time;durP1;ratioP1;P1;durP2;ratioP2;P2;SDS_P1;SDS_P2;PMS_P1;PMS_P2;Temp;Humidity;BMP_temperature;BMP_pressure;BME280_temperature;BME280_humidity;BME280_pressure;Samples;Min_cycle;Max_cycle;Signal;HPM_P1;HPM_P2
2023/07/31 00:01:58;;;;;;;3.67;3.05;;;;;;;21.47;69.00;94930.09;4964134;28;20051;-80
2023/07/31 00:04:24;;;;;;;5.65;3.72;;;;;;;21.51;69.76;94911.31;4981192;28;20038;-79
2023/07/31 00:06:49;;;;;;;3.92;3.30;;;;;;;21.32;69.38;94878.81;4996131;28;20035;-79
2023/07/31 00:09:14;;;;;;;4.53;3.88;;;;;;;21.46;69.39;94935.81;4981454;28;20073;-80
2023/07/31 00:11:40;;;;;;;5.03;3.58;;;;;;;21.49;68.82;94930.53;4976135;28;20043;-79
2023/07/31 00:14:05;;;;;;;5.57;4.28;;;;;;;21.43;67.92;94914.94;4978424;28;20039;-80
2023/07/31 00:16:31;;;;;;;5.53;3.85;;;;;;;21.46;67.34;94944.69;4980045;28;20031;-79
2023/07/31 00:18:56;;;;;;;5.25;3.78;;;;;;;21.47;67.91;94943.56;4961753;28;20030;-79
2023/07/31 00:21:22;;;;;;;7.65;3.67;;;;;;;21.42;68.45;94926.88;4961241;28;20070;-79
2023/07/31 00:23:47;;;;;;;4.05;3.28;;;;;;;21.39;67.79;94919.47;4962181;28;20034;-79
2023/07/31 00:26:12;;;;;;;6.72;3.80;;;;;;;21.48;68.19;94934.34;4971137;28;20469;-80
2023/07/31 00:28:38;;;;;;;6.85;3.65;;;;;;;21.63;70.29;94922.00;4957489;28;20039;-79
2023/07/31 00:31:03;;;;;;;5.43;3.42;;;;;;;21.52;67.02;94883.16;4956495;28;20035;-80
2023/07/31 00:33:31;;;;;;;4.95;3.90;;;;;;;21.71;69.12;94898.66;4974300;28;20039;-80
2023/07/31 00:35:56;;;;;;;4.50;3.58;;;;;;;21.52;69.52;94875.06;4979932;28;20035;-80
2023/07/31 00:38:22;;;;;;;5.85;4.38;;;;;;;21.40;69.07;94897.53;4969590;28;20045;-80
2023/07/31 00:40:47;;;;;;;6.22;3.85;;;;;;;21.43;69.71;94891.47;4955410;28;20077;-80
2023/07/31 00:43:12;;;;;;;9.10;5.03;;;;;;;21.33;70.83;94891.19;4955328;28;20065;-79
2023/07/31 00:45:38;;;;;;;5.25;4.18;;;;;;;21.20;70.51;94879.72;4969085;28;20093;-80
2023/07/31 00:48:06;;;;;;;6.32;4.05;;;;;;;21.33;70.72;94888.50;4954955;28;20050;-79
2023/07/31 00:50:31;;;;;;;5.45;4.55;;;;;;;21.29;70.20;94898.38;4973713;28;20023;-80
2023/07/31 00:52:57;;;;;;;5.85;4.47;;;;;;;21.36;72.05;94893.19;5061219;28;20109;-79
2023/07/31 00:55:23;;;;;;;6.57;5.05;;;;;;;21.24;71.46;94912.94;5067092;28;20037;-79
2023/07/31 00:57:50;;;;;;;11.95;5.50;;;;;;;20.92;71.85;94878.94;5035660;28;20033;-79
2023/07/31 01:00:15;;;;;;;8.07;6.32;;;;;;;20.90;72.64;94863.13;5034482;28;20475;-79
2023/07/31 01:02:41;;;;;;;10.50;6.50;;;;;;;21.33;73.50;94894.66;5035219;28;20104;-79
2023/07/31 01:05:06;;;;;;;9.75;7.82;;;;;;;21.31;74.23;94875.34;5058213;28;20037;-79
2023/07/31 01:07:48;;;;;;;10.90;8.98;;;;;;;21.14;71.87;94897.22;5057999;28;20136;-79
2023/07/31 01:10:20;;;;;;;;;;;;;;;21.01;72.43;94888.44;5035540;28;20045;-79
2023/07/31 01:12:48;;;;;;;12.05;9.77;;;;;;;20.79;72.96;94843.97;5034001;28;19967;-79
2023/07/31 01:15:14;;;;;;;12.45;9.82;;;;;;;20.92;72.53;94874.34;5035637;28;20056;-79
2023/07/31 01:17:42;;;;;;;15.07;10.27;;;;;;;20.88;72.60;94886.16;5034343;28;20034;-79
2023/07/31 01:20:13;;;;;;;12.00;9.98;;;;;;;20.99;72.88;94860.25;5035761;28;20029;-79
2023/07/31 01:22:54;;;;;;;13.15;10.20;;;;;;;21.04;73.94;94884.28;5035448;28;20582;-79
2023/07/31 01:25:19;;;;;;;15.97;12.43;;;;;;;21.06;73.34;94879.28;5068479;28;20041;-79
2023/07/31 01:28:07;;;;;;;16.83;12.50;;;;;;;21.03;72.79;94844.97;5036457;28;20470;-79
2023/07/31 01:30:37;;;;;;;20.83;13.43;;;;;;;20.82;73.60;94874.06;5034352;28;20507;-79
2023/07/31 01:33:09;;;;;;;17.17;14.20;;;;;;;20.64;74.33;94857.41;5033722;28;20041;-79
2023/07/31 01:35:40;;;;;;;16.98;14.13;;;;;;;20.67;74.86;94860.19;5029365;28;20503;-77
2023/07/31 01:38:05;;;;;;;23.63;16.23;;;;;;;20.53;74.59;94843.66;5030447;28;20033;-78
2023/07/31 01:40:31;;;;;;;20.63;16.80;;;;;;;20.30;75.36;94861.44;5029556;28;20299;-77
2023/07/31 01:42:56;;;;;;;20.63;17.13;;;;;;;20.26;75.85;94849.81;5017640;28;20046;-77
2023/07/31 01:45:21;;;;;;;23.10;17.75;;;;;;;20.47;76.99;94868.50;5029863;28;20083;-77
2023/07/31 01:47:47;;;;;;;20.00;17.05;;;;;;;20.44;75.82;94866.50;5031300;28;20064;-77
2023/07/31 01:50:12;;;;;;;25.00;19.45;;;;;;;20.32;75.42;94830.38;5028695;28;20041;-77
2023/07/31 01:52:38;;;;;;;28.25;22.25;;;;;;;20.45;75.83;94857.28;5061186;28;20145;-78
2023/07/31 01:55:04;;;;;;;29.38;23.23;;;;;;;20.41;76.54;94857.19;5013716;28;20571;-77
2023/07/31 01:57:29;;;;;;;32.50;24.15;;;;;;;20.59;76.40;94882.72;5031517;28;20077;-77
2023/07/31 01:59:55;;;;;;;36.63;26.98;;;;;;;20.57;76.50;94866.09;5030988;28;20029;-77
2023/07/31 02:02:22;;;;;;;33.03;25.58;;;;;;;20.69;75.88;94863.34;5027406;28;20033;-77
2023/07/31 02:04:48;;;;;;;31.55;24.02;;;;;;;20.45;75.71;94846.50;5029413;28;20090;-77
2023/07/31 02:07:14;;;;;;;32.67;23.50;;;;;;;20.68;76.11;94886.00;5029336;28;20037;-77
2023/07/31 02:09:39;;;;;;;29.90;24.20;;;;;;;20.69;76.30;94887.59;5031159;28;20499;-77
2023/07/31 02:12:05;;;;;;;30.25;22.13;;;;;;;20.64;76.29;94873.59;5062270;28;20044;-77
2023/07/31 02:14:30;;;;;;;27.50;23.13;;;;;;;20.51;75.98;94848.63;5030407;28;20038;-77
2023/07/31 02:16:56;;;;;;;27.85;23.25;;;;;;;20.44;76.89;94877.28;5030870;28;20180;-77
2023/07/31 02:19:21;;;;;;;31.42;22.40;;;;;;;20.48;76.83;94881.63;5030874;28;20120;-78
2023/07/31 02:21:46;;;;;;;27.23;21.42;;;;;;;20.58;76.48;94873.06;5028534;28;20056;-77
2023/07/31 02:24:12;;;;;;;24.80;20.58;;;;;;;20.68;76.85;94898.69;5062743;28;20034;-77
2023/07/31 02:26:37;;;;;;;31.00;22.52;;;;;;;20.57;76.76;94873.41;5029112;28;20038;-77
2023/07/31 02:29:03;;;;;;;28.55;22.48;;;;;;;20.63;75.86;94878.19;5030583;28;20033;-77
2023/07/31 02:31:28;;;;;;;27.63;22.25;;;;;;;20.58;76.40;94853.41;5062003;28;20033;-77
2023/07/31 02:33:54;;;;;;;33.05;23.35;;;;;;;20.79;76.40;94883.63;5030983;28;20059;-77
2023/07/31 02:36:19;;;;;;;29.88;24.08;;;;;;;21.00;75.82;94884.16;5030684;28;20033;-77
2023/07/31 02:38:45;;;;;;;31.63;21.83;;;;;;;20.89;75.83;94877.72;5062065;28;20037;-77
2023/07/31 02:41:10;;;;;;;26.25;21.33;;;;;;;21.03;75.30;94894.28;5057728;28;20444;-77
2023/07/31 02:43:35;;;;;;;30.42;22.42;;;;;;;20.82;74.82;94879.47;5026896;28;20037;-77
2023/07/31 02:46:01;;;;;;;27.05;21.98;;;;;;;21.04;75.33;94884.28;5029555;28;20041;-77
2023/07/31 02:48:26;;;;;;;28.67;23.00;;;;;;;20.98;76.08;94893.75;5029090;28;20040;-77
2023/07/31 02:50:52;;;;;;;28.40;21.75;;;;;;;20.94;75.25;94879.38;5030354;28;20061;-77
2023/07/31 02:53:17;;;;;;;25.65;21.80;;;;;;;20.84;75.48;94871.78;4965515;28;20042;-77
2023/07/31 02:55:43;;;;;;;28.27;22.58;;;;;;;20.82;75.40;94893.72;4965594;28;20409;-78
2023/07/31 02:58:08;;;;;;;32.15;23.33;;;;;;;20.80;75.76;94912.94;4968534;28;20046;-78
2023/07/31 03:00:34;;;;;;;30.35;23.42;;;;;;;20.48;76.03;94880.84;4951227;28;20031;-77
2023/07/31 03:02:59;;;;;;;33.47;23.50;;;;;;;20.78;76.54;94911.69;4951447;28;20057;-77
2023/07/31 03:05:24;;;;;;;29.13;22.73;;;;;;;20.71;76.22;94896.13;4951556;28;20034;-78
2023/07/31 03:07:50;;;;;;;28.60;22.52;;;;;;;20.72;75.68;94897.69;4969972;28;20030;-77
2023/07/31 03:10:15;;;;;;;27.25;22.15;;;;;;;20.74;75.80;94911.63;4969749;28;20459;-78
2023/07/31 03:12:41;;;;;;;31.75;24.17;;;;;;;20.67;76.14;94900.63;4948374;28;20272;-77
2023/07/31 03:15:07;;;;;;;30.30;24.20;;;;;;;20.60;76.15;94889.66;4999549;28;20137;-77
2023/07/31 03:17:32;;;;;;;32.05;24.35;;;;;;;20.61;76.28;94895.81;4968893;28;20026;-78
2023/07/31 03:19:58;;;;;;;30.00;24.08;;;;;;;20.77;76.00;94907.44;4970192;28;20034;-77
2023/07/31 03:22:23;;;;;;;28.20;23.58;;;;;;;20.90;75.96;94916.25;4953496;28;20038;-77
2023/07/31 03:24:49;;;;;;;28.10;24.05;;;;;;;20.74;75.56;94913.53;4969454;28;20483;-77
2023/07/31 03:27:14;;;;;;;35.08;24.85;;;;;;;20.91;75.54;94909.72;4970212;28;20042;-77
2023/07/31 03:29:40;;;;;;;32.50;24.77;;;;;;;20.84;75.25;94907.63;4970548;28;20097;-77
2023/07/31 03:32:05;;;;;;;29.58;24.10;;;;;;;20.90;75.54;94900.88;4972204;28;20042;-77
2023/07/31 03:34:31;;;;;;;29.88;23.30;;;;;;;21.17;74.63;94937.03;4953998;28;20066;-78
2023/07/31 03:36:58;;;;;;;32.60;24.35;;;;;;;20.96;74.50;94898.69;4953260;28;20466;-77
2023/07/31 03:39:23;;;;;;;31.20;23.90;;;;;;;21.22;74.42;94909.00;4971327;28;20063;-77
2023/07/31 03:41:48;;;;;;;29.63;24.23;;;;;;;21.26;74.19;94934.94;4952948;28;20041;-77
2023/07/31 03:44:14;;;;;;;34.15;24.27;;;;;;;21.18;74.14;94911.63;4969325;28;20039;-78
2023/07/31 03:46:40;;;;;;;28.42;23.55;;;;;;;21.11;74.11;94922.19;4951678;28;20425;-78
2023/07/31 03:49:05;;;;;;;32.50;24.83;;;;;;;21.06;74.76;94912.44;4951473;28;20030;-78
2023/07/31 03:51:30;;;;;;;34.20;24.13;;;;;;;21.07;73.87;94915.91;4950435;28;20051;-77
2023/07/31 03:53:56;;;;;;;31.17;23.40;;;;;;;20.90;73.90;94925.13;4995683;28;20035;-77
2023/07/31 03:56:22;;;;;;;31.48;24.73;;;;;;;21.01;73.94;94930.78;4969732;28;20068;-79
2023/07/31 03:58:47;;;;;;;34.17;25.05;;;;;;;20.94;74.35;94938.69;4957903;28;20487;-79
2023/07/31 04:01:13;;;;;;;34.58;24.88;;;;;;;20.71;74.58;94925.75;4972533;28;20110;-79
2023/07/31 04:03:38;;;;;;;33.53;25.15;;;;;;;20.78;74.86;94935.94;4973568;28;20034;-79
2023/07/31 04:06:04;;;;;;;34.08;24.38;;;;;;;20.79;74.76;94942.91;4972242;28;20042;-79
2023/07/31 04:08:29;;;;;;;33.17;24.95;;;;;;;20.80;74.52;94944.47;5002268;28;20034;-79
2023/07/31 04:10:54;;;;;;;35.97;26.90;;;;;;;20.79;74.59;94927.53;4977423;28;20034;-79
2023/07/31 04:13:22;;;;;;;34.30;25.33;;;;;;;20.96;74.25;94948.00;4960201;28;20133;-79
2023/07/31 04:15:50;;;;;;;41.83;26.45;;;;;;;20.94;74.25;94952.94;4999018;28;20172;-79
2023/07/31 04:18:16;;;;;;;37.15;25.33;;;;;;;20.97;74.06;94960.34;4980706;28;20153;-79
2023/07/31 04:20:41;;;;;;;35.35;26.90;;;;;;;20.87;74.06;94917.72;4975552;28;20097;-79
2023/07/31 04:23:07;;;;;;;35.88;27.73;;;;;;;21.11;73.64;94947.25;4957710;28;20034;-79
2023/07/31 04:25:34;;;;;;;34.33;26.05;;;;;;;21.04;73.30;94938.97;4975455;28;20038;-79
2023/07/31 04:28:00;;;;;;;38.38;26.73;;;;;;;20.92;73.26;94927.44;4976305;28;20081;-79
2023/07/31 04:30:25;;;;;;;37.30;26.20;;;;;;;20.92;73.55;94930.94;4975323;28;20027;-79
2023/07/31 04:32:51;;;;;;;36.70;26.73;;;;;;;21.14;73.30;94967.34;4974030;28;20117;-79
2023/07/31 04:35:16;;;;;;;34.60;25.90;;;;;;;21.25;72.95;94968.44;4958256;28;20389;-78
2023/07/31 04:37:41;;;;;;;34.75;27.02;;;;;;;21.17;72.25;94955.91;4972671;28;20042;-78
2023/07/31 04:40:08;;;;;;;31.33;24.23;;;;;;;21.18;72.61;94963.66;4968135;28;20043;-78
2023/07/31 04:42:34;;;;;;;28.98;22.92;;;;;;;21.06;72.34;94968.25;4969692;28;20056;-78
2023/07/31 04:44:59;;;;;;;33.63;24.38;;;;;;;20.78;72.96;94958.28;4975475;28;20165;-79
2023/07/31 04:47:25;;;;;;;33.88;24.63;;;;;;;20.51;73.81;94928.66;4974887;28;20051;-79
2023/07/31 04:49:50;;;;;;;33.78;24.13;;;;;;;20.91;73.18;94960.94;4976628;28;20038;-79
2023/07/31 04:52:16;;;;;;;30.77;25.08;;;;;;;20.84;72.86;94942.66;4974682;28;20057;-78
2023/07/31 04:54:41;;;;;;;33.55;25.40;;;;;;;20.91;72.55;94950.16;4959660;28;20041;-79
2023/07/31 04:57:07;;;;;;;32.47;25.25;;;;;;;20.96;72.81;94958.00;4959037;28;20031;-79
2023/07/31 04:59:32;;;;;;;32.83;24.77;;;;;;;20.85;72.77;94949.63;4973673;28;20042;-79
2023/07/31 05:01:57;;;;;;;35.05;25.33;;;;;;;21.16;71.96;94957.00;4958142;28;20121;-78
2023/07/31 05:04:23;;;;;;;33.58;22.83;;;;;;;21.01;71.71;94949.66;4977311;28;20030;-79
2023/07/31 05:06:48;;;;;;;32.47;24.27;;;;;;;20.92;72.28;94933.63;4952978;28;20505;-78
2023/07/31 05:09:14;;;;;;;31.88;23.75;;;;;;;21.02;72.08;94946.63;4946289;28;20283;-78
2023/07/31 05:11:40;;;;;;;31.23;23.55;;;;;;;21.11;72.01;94941.84;4957333;28;20019;-78
2023/07/31 05:14:06;;;;;;;28.98;23.33;;;;;;;20.90;71.94;94927.81;4973521;28;20100;-78
2023/07/31 05:16:31;;;;;;;30.25;23.70;;;;;;;20.90;72.07;94905.47;4975362;28;20451;-78
2023/07/31 05:18:57;;;;;;;34.35;24.60;;;;;;;21.09;71.60;94895.56;4957776;28;20507;-79
2023/07/31 05:21:22;;;;;;;25.48;20.38;;;;;;;21.45;70.41;94948.53;4974197;28;20097;-79
2023/07/31 05:23:48;;;;;;;24.98;19.65;;;;;;;21.28;70.42;94931.91;4958558;28;20038;-79
2023/07/31 05:26:14;;;;;;;19.50;17.33;;;;;;;21.44;69.94;94938.84;4976138;28;20031;-79
2023/07/31 05:28:39;;;;;;;22.45;19.27;;;;;;;21.18;69.80;94938.59;4958671;28;20023;-80
2023/07/31 05:31:06;;;;;;;21.95;19.40;;;;;;;20.92;70.68;94876.25;4976470;28;20473;-79
2023/07/31 05:33:32;;;;;;;26.10;19.35;;;;;;;21.06;70.16;94900.88;4961058;28;20117;-79
2023/07/31 05:35:57;;;;;;;27.75;17.27;;;;;;;20.74;70.27;94873.88;4978995;28;20158;-80
2023/07/31 05:38:23;;;;;;;23.27;17.10;;;;;;;21.05;70.49;94912.81;4979989;28;20039;-80
2023/07/31 05:40:48;;;;;;;20.17;16.33;;;;;;;21.12;70.13;94934.56;4964369;28;20035;-80
2023/07/31 05:43:14;;;;;;;18.70;15.60;;;;;;;20.99;70.26;94941.91;4963260;28;20042;-80
2023/07/31 05:45:41;;;;;;;23.90;17.15;;;;;;;21.22;70.65;94950.25;4963358;28;20030;-80
2023/07/31 05:48:07;;;;;;;19.48;14.77;;;;;;;21.19;69.64;94923.97;4983191;28;20026;-80
2023/07/31 05:50:32;;;;;;;17.92;13.57;;;;;;;21.24;68.96;94958.78;4965543;28;20034;-80
2023/07/31 05:52:58;;;;;;;26.08;13.05;;;;;;;21.21;68.19;94964.84;4982679;28;20074;-80
2023/07/31 05:55:26;;;;;;;17.63;12.45;;;;;;;21.25;68.20;94954.94;4985004;28;20035;-80
2023/07/31 05:57:52;;;;;;;15.90;13.45;;;;;;;21.39;68.11;94949.91;4979522;28;20039;-79
2023/07/31 06:00:17;;;;;;;12.68;11.00;;;;;;;21.27;66.88;94925.72;4988782;28;20050;-80
2023/07/31 06:02:43;;;;;;;13.38;11.50;;;;;;;21.31;66.89;94942.78;4964420;28;20168;-80
2023/07/31 06:05:08;;;;;;;20.17;11.43;;;;;;;21.42;66.38;94960.03;5002020;28;20035;-80
2023/07/31 06:07:34;;;;;;;14.50;10.07;;;;;;;21.45;66.06;94974.72;4977386;28;20053;-80
2023/07/31 06:10:04;;;;;;;11.05;9.85;;;;;;;21.49;65.78;94965.59;4978993;28;20034;-80
2023/07/31 06:12:30;;;;;;;12.23;9.40;;;;;;;21.51;65.66;94968.72;4979752;28;20065;-80
2023/07/31 06:14:56;;;;;;;12.98;9.52;;;;;;;21.35;65.61;94950.97;4995788;28;20141;-80
2023/07/31 06:17:21;;;;;;;12.15;9.40;;;;;;;21.39;65.22;94954.53;4957147;28;20109;-79
2023/07/31 06:19:47;;;;;;;15.32;10.02;;;;;;;21.35;65.19;94914.00;4957621;28;20504;-79
2023/07/31 06:22:12;;;;;;;11.98;8.70;;;;;;;21.66;64.73;94953.69;4958836;28;20047;-79
2023/07/31 06:24:38;;;;;;;11.15;8.38;;;;;;;21.80;63.87;94945.13;4976374;28;20027;-79
2023/07/31 06:27:05;;;;;;;12.90;8.38;;;;;;;22.03;62.79;94956.91;4958707;28;20031;-78
2023/07/31 06:29:30;;;;;;;8.30;7.20;;;;;;;21.68;62.94;94929.81;4957912;28;20465;-78
2023/07/31 06:31:56;;;;;;;10.20;7.30;;;;;;;21.81;63.01;94955.59;4975887;28;20040;-77
2023/07/31 06:34:21;;;;;;;11.88;7.20;;;;;;;21.84;62.80;94967.59;4950761;28;20121;-78
2023/07/31 06:36:46;;;;;;;13.27;6.78;;;;;;;21.79;62.73;94960.53;4955674;28;20022;-78
2023/07/31 06:39:12;;;;;;;11.98;6.93;;;;;;;21.95;62.94;94945.13;4978848;28;20043;-78
2023/07/31 06:41:38;;;;;;;9.52;6.93;;;;;;;21.93;62.34;94970.88;4972061;28;20041;-78
2023/07/31 06:44:04;;;;;;;10.90;6.63;;;;;;;21.90;62.80;94976.97;4974039;28;20068;-77
2023/07/31 06:46:29;;;;;;;11.57;6.55;;;;;;;21.55;63.04;94939.13;4987630;28;20440;-78
2023/07/31 06:48:55;;;;;;;16.75;7.18;;;;;;;21.60;63.27;94960.44;4956923;28;20437;-77
2023/07/31 06:51:20;;;;;;;11.23;6.57;;;;;;;21.62;63.26;94958.19;4972789;28;20050;-77
2023/07/31 06:53:46;;;;;;;10.30;6.22;;;;;;;21.57;62.98;94936.88;4939235;28;20069;-78
2023/07/31 06:56:12;;;;;;;10.48;6.43;;;;;;;21.80;62.63;94964.03;4987651;28;20099;-78
2023/07/31 06:58:37;;;;;;;11.23;5.70;;;;;;;21.88;62.66;94988.16;4956320;28;20053;-77
2023/07/31 07:01:03;;;;;;;12.30;6.00;;;;;;;21.88;62.32;94982.75;4973863;28;20045;-77
2023/07/31 07:03:29;;;;;;;7.45;5.65;;;;;;;21.65;62.13;94949.41;4973161;28;20397;-77
2023/07/31 07:05:54;;;;;;;10.25;5.75;;;;;;;21.61;62.13;94948.53;4973292;28;20043;-77
2023/07/31 07:08:20;;;;;;;6.45;5.43;;;;;;;21.70;61.94;94942.97;4956299;28;20169;-77
2023/07/31 07:10:46;;;;;;;11.95;5.50;;;;;;;21.84;61.73;94972.97;4987089;28;20077;-77
2023/07/31 07:13:12;;;;;;;9.40;5.43;;;;;;;21.64;61.73;94953.25;4972570;28;20027;-77
2023/07/31 07:15:38;;;;;;;6.25;4.80;;;;;;;21.48;61.96;94952.44;4973555;28;20039;-77
2023/07/31 07:18:03;;;;;;;11.65;4.97;;;;;;;21.62;61.44;94965.50;4973717;28;20041;-77
2023/07/31 07:20:29;;;;;;;7.43;4.28;;;;;;;21.82;61.38;94977.94;4953908;28;20092;-77
2023/07/31 07:22:54;;;;;;;9.88;4.90;;;;;;;21.45;60.97;94932.34;4973068;28;20040;-77
2023/07/31 07:25:20;;;;;;;5.63;5.03;;;;;;;21.73;61.38;94971.97;4987675;28;20518;-78
2023/07/31 07:27:45;;;;;;;9.52;5.47;;;;;;;21.82;60.67;94964.44;4986466;28;20518;-79
2023/07/31 07:30:11;;;;;;;10.18;4.78;;;;;;;21.58;61.07;94934.97;4985324;28;20497;-79
2023/07/31 07:32:36;;;;;;;5.78;4.30;;;;;;;21.67;61.13;94944.44;4953743;28;20091;-78
2023/07/31 07:35:02;;;;;;;6.00;5.13;;;;;;;21.75;61.21;94956.97;4986316;28;20647;-78
2023/07/31 07:37:27;;;;;;;6.32;5.10;;;;;;;21.79;61.41;94960.53;4954183;28;20031;-78
2023/07/31 07:39:52;;;;;;;8.18;4.80;;;;;;;21.79;60.96;94944.34;4971139;28;20030;-78
2023/07/31 07:42:18;;;;;;;10.75;4.60;;;;;;;21.92;60.79;94950.41;4966660;28;20035;-79
2023/07/31 07:44:43;;;;;;;8.55;4.53;;;;;;;22.18;60.46;94958.00;4946995;28;20066;-79
2023/07/31 07:47:09;;;;;;;9.43;5.63;;;;;;;22.26;60.41;94962.44;4954262;28;20152;-78
2023/07/31 07:49:35;;;;;;;6.97;4.00;;;;;;;22.28;59.57;94976.34;4975295;28;20034;-79
2023/07/31 07:52:01;;;;;;;7.15;4.60;;;;;;;22.36;59.62;94961.84;4987339;28;20400;-78
2023/07/31 07:54:27;;;;;;;40.47;19.42;;;;;;;22.37;59.36;94955.31;5035431;28;20121;-78
2023/07/31 07:56:52;;;;;;;6.72;4.28;;;;;;;22.56;57.98;94979.69;5032432;28;20048;-78
2023/07/31 07:59:17;;;;;;;6.80;4.40;;;;;;;22.33;57.44;94925.53;5031722;28;20053;-78
2023/07/31 08:01:43;;;;;;;6.10;3.55;;;;;;;22.19;56.87;94935.25;5034969;28;20029;-78
2023/07/31 08:04:08;;;;;;;4.78;4.05;;;;;;;22.19;57.09;94902.84;5036510;28;20524;-78
2023/07/31 08:06:34;;;;;;;5.50;4.00;;;;;;;22.77;57.30;94986.69;5035079;28;20519;-78
2023/07/31 08:09:05;;;;;;;6.43;4.10;;;;;;;22.74;56.83;94974.66;5036696;28;20120;-79
2023/07/31 08:11:30;;;;;;;6.55;3.90;;;;;;;22.85;56.94;94989.19;5069330;28;20036;-78
2023/07/31 08:13:56;;;;;;;11.77;4.47;;;;;;;22.90;57.03;94988.09;5037147;28;20029;-78
2023/07/31 08:16:21;;;;;;;13.00;4.88;;;;;;;22.64;56.12;94932.75;5037499;28;20033;-78
2023/07/31 08:18:46;;;;;;;8.23;4.40;;;;;;;23.11;55.78;94987.75;5032185;28;20025;-78
2023/07/31 08:21:12;;;;;;;5.70;4.32;;;;;;;23.12;55.34;94984.69;5035688;28;20036;-79
2023/07/31 08:23:37;;;;;;;8.93;5.13;;;;;;;23.24;54.19;94979.13;5035253;28;20033;-79
2023/07/31 08:26:03;;;;;;;12.15;4.30;;;;;;;23.24;54.36;94973.72;5035543;28;20030;-78
2023/07/31 08:28:28;;;;;;;9.38;4.30;;;;;;;23.25;53.99;94964.47;5036321;28;20081;-79
2023/07/31 08:30:54;;;;;;;7.45;4.07;;;;;;;23.20;54.15;94953.13;5037671;28;20065;-79
2023/07/31 08:33:19;;;;;;;13.07;4.68;;;;;;;23.25;53.96;94950.16;5036608;28;20060;-78
2023/07/31 08:35:44;;;;;;;8.75;4.03;;;;;;;23.34;53.31;94959.59;5054464;28;20127;-77
2023/07/31 08:38:12;;;;;;;9.07;4.57;;;;;;;23.56;53.21;94981.66;5031252;28;20045;-77
2023/07/31 08:40:38;;;;;;;5.18;3.78;;;;;;;23.43;52.67;94968.25;5034459;28;20029;-77
2023/07/31 08:43:03;;;;;;;4.20;3.58;;;;;;;23.49;52.46;94968.00;5033193;28;20527;-76
2023/07/31 08:45:30;;;;;;;7.68;4.00;;;;;;;23.53;52.51;94942.56;5029432;28;20037;-76
2023/07/31 08:47:57;;;;;;;8.27;3.67;;;;;;;23.73;51.68;94964.91;5057516;28;20120;-77
2023/07/31 08:50:22;;;;;;;7.82;3.88;;;;;;;23.70;50.83;94939.38;5031012;28;20400;-77
2023/07/31 08:52:50;;;;;;;6.70;3.70;;;;;;;23.87;51.05;94956.25;4992826;28;20055;-76
2023/07/31 08:55:16;;;;;;;8.38;3.83;;;;;;;23.88;50.73;94961.28;4969452;28;20551;-77
2023/07/31 08:57:42;;;;;;;6.63;3.83;;;;;;;23.87;50.55;94961.69;4965658;28;20038;-76
2023/07/31 09:00:10;;;;;;;5.93;3.65;;;;;;;23.92;51.01;94955.94;4967560;28;20114;-77
2023/07/31 09:02:45;;;;;;;6.10;4.35;;;;;;;23.97;50.21;94961.81;4949687;28;20420;-77
2023/07/31 09:05:11;;;;;;;7.45;3.90;;;;;;;23.87;50.20;94951.63;4951550;28;20043;-76
2023/07/31 09:07:37;;;;;;;7.00;3.90;;;;;;;23.82;49.98;94930.25;4964544;28;20452;-76
2023/07/31 09:10:03;;;;;;;7.70;3.70;;;;;;;24.00;50.31;94923.19;4952094;28;20035;-76
2023/07/31 09:12:29;;;;;;;5.15;3.50;;;;;;;24.03;50.00;94949.53;4952180;28;20132;-76
2023/07/31 09:14:56;;;;;;;5.25;3.65;;;;;;;24.23;49.84;94951.03;4984098;28;20517;-77
2023/07/31 09:17:32;;;;;;;6.50;4.40;;;;;;;24.28;49.30;94951.84;4970104;28;20031;-77
2023/07/31 09:20:12;;;;;;;5.70;3.25;;;;;;;24.13;49.68;94923.75;4952347;28;20524;-77
2023/07/31 09:22:37;;;;;;;8.55;3.75;;;;;;;24.16;49.68;94942.00;4968419;28;20542;-76
2023/07/31 09:25:29;;;;;;;7.22;4.28;;;;;;;24.35;49.79;94943.81;4983000;28;20034;-77
2023/07/31 09:28:06;;;;;;;8.07;3.58;;;;;;;24.45;50.03;94932.34;4971377;28;20527;-77
2023/07/31 09:30:44;;;;;;;8.02;3.65;;;;;;;24.48;49.31;94940.53;4970106;28;20060;-77
2023/07/31 09:33:09;;;;;;;6.22;3.63;;;;;;;24.47;49.37;94933.56;4969288;28;20523;-77
2023/07/31 09:35:37;;;;;;;8.95;4.30;;;;;;;24.46;49.32;94923.88;4970130;28;20046;-76
2023/07/31 09:38:05;;;;;;;6.68;3.65;;;;;;;24.53;48.88;94923.94;4984265;28;20056;-77
2023/07/31 09:40:36;;;;;;;6.38;3.83;;;;;;;24.66;48.83;94927.19;4973122;28;20082;-77
2023/07/31 09:43:06;;;;;;;6.75;3.33;;;;;;;24.41;49.31;94912.56;4969393;28;20446;-76
2023/07/31 09:45:34;;;;;;;4.43;3.42;;;;;;;24.63;49.31;94917.09;4969771;28;20043;-76
2023/07/31 09:48:00;;;;;;;9.05;4.13;;;;;;;24.82;48.93;94933.22;4951923;28;20035;-77
2023/07/31 09:50:25;;;;;;;12.77;3.65;;;;;;;24.83;48.57;94912.28;4951509;28;20548;-77
2023/07/31 09:52:52;;;;;;;6.18;3.65;;;;;;;25.01;47.91;94917.94;4952171;28;20180;-77
2023/07/31 09:55:18;;;;;;;5.45;3.47;;;;;;;25.22;47.04;94918.94;4951666;28;20456;-77
2023/07/31 09:57:48;;;;;;;9.43;3.40;;;;;;;25.54;46.01;94921.19;4969228;28;20030;-77
2023/07/31 10:00:16;;;;;;;5.57;2.90;;;;;;;25.73;44.99;94929.91;4951934;28;20089;-77
2023/07/31 10:02:46;;;;;;;4.25;2.78;;;;;;;25.69;45.26;94923.69;4952364;28;20110;-77
2023/07/31 10:05:16;;;;;;;5.88;3.30;;;;;;;25.81;44.98;94902.78;4969397;28;20034;-77
2023/07/31 10:07:45;;;;;;;5.68;2.83;;;;;;;25.81;45.19;94936.19;4969253;28;20096;-77
2023/07/31 10:10:11;;;;;;;11.88;3.40;;;;;;;25.68;45.21;94915.91;4957538;28;20089;-77
2023/07/31 10:12:37;;;;;;;7.57;3.20;;;;;;;25.63;45.07;94900.72;4952235;28;20037;-77
2023/07/31 10:15:04;;;;;;;4.03;2.63;;;;;;;26.32;43.95;94919.09;4969749;28;20035;-77
2023/07/31 10:17:31;;;;;;;3.53;2.50;;;;;;;26.34;43.10;94905.88;4969640;28;20027;-77
2023/07/31 10:20:01;;;;;;;5.25;2.70;;;;;;;26.33;42.82;94923.34;4947710;28;20019;-78
2023/07/31 10:22:26;;;;;;;7.95;2.90;;;;;;;26.37;42.45;94877.94;4942893;28;20118;-77
2023/07/31 10:24:54;;;;;;;3.25;2.20;;;;;;;27.31;40.85;94916.00;4943528;28;20119;-77
2023/07/31 10:27:20;;;;;;;6.70;2.60;;;;;;;27.45;40.18;94889.56;4944814;28;20424;-76
2023/07/31 10:29:47;;;;;;;5.50;2.80;;;;;;;27.48;40.48;94916.00;4945059;28;20023;-77
2023/07/31 10:32:15;;;;;;;8.25;2.70;;;;;;;27.60;40.15;94918.41;4968935;28;20027;-77
2023/07/31 10:34:42;;;;;;;5.28;2.60;;;;;;;28.18;38.56;94908.25;4944461;28;20026;-77
2023/07/31 10:37:27;;;;;;;2.85;2.03;;;;;;;28.77;37.34;94904.59;4951759;28;20019;-77
2023/07/31 10:40:00;;;;;;;4.18;2.17;;;;;;;28.79;36.95;94896.81;5002709;28;20034;-77
2023/07/31 10:42:37;;;;;;;3.97;2.40;;;;;;;29.02;37.30;94890.84;4973654;28;20027;-78
2023/07/31 10:45:10;;;;;;;3.67;2.38;;;;;;;29.08;36.47;94897.44;4944170;28;20421;-77
2023/07/31 10:47:43;;;;;;;4.22;2.28;;;;;;;29.48;35.69;94906.19;4968492;28;20054;-78
2023/07/31 10:50:21;;;;;;;5.18;2.00;;;;;;;29.45;35.86;94885.13;4951389;28;20122;-77
2023/07/31 10:52:49;;;;;;;3.22;2.35;;;;;;;30.08;34.89;94888.53;4968690;28;20528;-77
2023/07/31 10:55:39;;;;;;;3.58;2.50;;;;;;;29.87;34.28;94875.81;4952144;28;20066;-78
2023/07/31 10:58:13;;;;;;;6.28;2.35;;;;;;;30.10;34.36;94888.94;4963715;28;20035;-78
2023/07/31 11:00:41;;;;;;;3.83;2.20;;;;;;;30.08;34.58;94885.81;4950838;28;20447;-76
2023/07/31 11:03:10;;;;;;;3.05;2.10;;;;;;;30.30;34.02;94887.16;4935931;28;20096;-77
2023/07/31 11:05:44;;;;;;;4.70;2.45;;;;;;;29.80;34.61;94884.88;4952079;28;20044;-76
2023/07/31 11:08:17;;;;;;;5.60;2.10;;;;;;;30.07;34.45;94887.00;4951458;28;20081;-77
2023/07/31 11:10:44;;;;;;;4.63;1.80;;;;;;;30.20;33.63;94857.97;4951514;28;20042;-77
2023/07/31 11:13:10;;;;;;;5.38;2.40;;;;;;;30.23;33.76;94871.59;4949352;28;20057;-77
2023/07/31 11:15:36;;;;;;;2.55;1.98;;;;;;;30.38;32.75;94849.56;4940709;29;20039;-77
2023/07/31 11:18:05;;;;;;;6.45;2.95;;;;;;;30.42;32.77;94856.56;4964527;28;20045;-77
2023/07/31 11:20:32;;;;;;;3.10;1.92;;;;;;;30.26;32.19;94813.34;4951680;28;20038;-77
2023/07/31 11:23:02;;;;;;;5.13;2.50;;;;;;;30.52;32.04;94822.81;4971885;28;20035;-77
2023/07/31 11:25:32;;;;;;;4.43;2.10;;;;;;;30.46;32.38;94870.19;4971964;28;20070;-77